sensor_id;sensor_type;location;lat;lon;timestamp;temperature;humidity
20728;DHT22;10525;50.154;8.198;2022-09-03T00:00:38;15.70;99.90
20728;DHT22;10525;50.154;8.198;2022-09-03T00:03:12;15.80;99.90
20728;DHT22;10525;50.154;8.198;2022-09-03T00:05:47;15.80;99.90
20728;DHT22;10525;50.154;8.198;2022-09-03T00:08:18;15.90;99.90
20728;DHT22;10525;50.154;8.198;2022-09-03T00:10:51;15.80;99.90
20728;DHT22;10525;50.154;8.198;2022-09-03T00:13:23;15.70;99.90
20728;DHT22;10525;50.154;8.198;2022-09-03T00:15:54;15.60;99.90
20728;DHT22;10525;50.154;8.198;2022-09-03T00:18:26;15.60;99.90
20728;DHT22;10525;50.154;8.198;2022-09-03T00:20:58;15.50;99.90
20728;DHT22;10525;50.154;8.198;2022-09-03T00:23:34;15.60;99.90
20728;DHT22;10525;50.154;8.198;2022-09-03T00:26:13;15.50;99.90
20728;DHT22;10525;50.154;8.198;2022-09-03T00:28:44;15.50;99.90
20728;DHT22;10525;50.154;8.198;2022-09-03T00:31:15;15.70;99.90
20728;DHT22;10525;50.154;8.198;2022-09-03T00:33:45;15.70;99.90
20728;DHT22;10525;50.154;8.198;2022-09-03T00:36:19;15.60;99.90
20728;DHT22;10525;50.154;8.198;2022-09-03T00:38:46;15.60;99.90
20728;DHT22;10525;50.154;8.198;2022-09-03T00:41:22;15.60;99.90
20728;DHT22;10525;50.154;8.198;2022-09-03T00:44:01;15.60;99.90
20728;DHT22;10525;50.154;8.198;2022-09-03T00:46:36;15.50;99.90
20728;DHT22;10525;50.154;8.198;2022-09-03T00:49:30;15.50;99.90
20728;DHT22;10525;50.154;8.198;2022-09-03T00:52:07;15.50;99.90
20728;DHT22;10525;50.154;8.198;2022-09-03T00:54:43;15.40;99.90
20728;DHT22;10525;50.154;8.198;2022-09-03T00:57:29;15.50;99.90
20728;DHT22;10525;50.154;8.198;2022-09-03T01:00:04;15.60;99.90
20728;DHT22;10525;50.154;8.198;2022-09-03T01:02:44;15.60;99.90
20728;DHT22;10525;50.154;8.198;2022-09-03T01:05:22;15.60;99.90
20728;DHT22;10525;50.154;8.198;2022-09-03T01:08:02;15.50;99.90
20728;DHT22;10525;50.154;8.198;2022-09-03T01:10:34;15.40;99.90
20728;DHT22;10525;50.154;8.198;2022-09-03T01:13:13;15.30;99.90
20728;DHT22;10525;50.154;8.198;2022-09-03T01:15:47;15.20;99.90
20728;DHT22;10525;50.154;8.198;2022-09-03T01:18:22;15.20;99.90
20728;DHT22;10525;50.154;8.198;2022-09-03T01:20:57;15.20;99.90
20728;DHT22;10525;50.154;8.198;2022-09-03T01:23:42;15.20;99.90
20728;DHT22;10525;50.154;8.198;2022-09-03T01:26:27;15.20;99.90
20728;DHT22;10525;50.154;8.198;2022-09-03T01:29:02;15.10;99.90
20728;DHT22;10525;50.154;8.198;2022-09-03T01:31:40;15.10;99.90
20728;DHT22;10525;50.154;8.198;2022-09-03T01:34:16;15.10;99.90
20728;DHT22;10525;50.154;8.198;2022-09-03T01:36:54;15.10;99.90
20728;DHT22;10525;50.154;8.198;2022-09-03T01:39:32;15.00;99.90
20728;DHT22;10525;50.154;8.198;2022-09-03T01:42:06;14.90;99.90
20728;DHT22;10525;50.154;8.198;2022-09-03T01:44:49;15.00;99.90
20728;DHT22;10525;50.154;8.198;2022-09-03T01:47:24;14.90;99.90
20728;DHT22;10525;50.154;8.198;2022-09-03T01:50:03;14.90;99.90
20728;DHT22;10525;50.154;8.198;2022-09-03T01:52:39;14.90;99.90
20728;DHT22;10525;50.154;8.198;2022-09-03T01:55:18;14.90;99.90
20728;DHT22;10525;50.154;8.198;2022-09-03T01:57:52;14.90;99.90
20728;DHT22;10525;50.154;8.198;2022-09-03T02:00:24;14.90;99.90
20728;DHT22;10525;50.154;8.198;2022-09-03T02:02:52;14.90;99.90
20728;DHT22;10525;50.154;8.198;2022-09-03T02:05:21;15.10;99.90
20728;DHT22;10525;50.154;8.198;2022-09-03T02:07:50;15.00;99.90
20728;DHT22;10525;50.154;8.198;2022-09-03T02:10:22;15.00;99.90
20728;DHT22;10525;50.154;8.198;2022-09-03T02:12:55;15.00;99.90
20728;DHT22;10525;50.154;8.198;2022-09-03T02:15:24;15.00;99.90
20728;DHT22;10525;50.154;8.198;2022-09-03T02:17:55;14.90;99.90
20728;DHT22;10525;50.154;8.198;2022-09-03T02:20:26;14.90;99.90
20728;DHT22;10525;50.154;8.198;2022-09-03T02:22:55;14.90;99.90
20728;DHT22;10525;50.154;8.198;2022-09-03T02:25:28;14.90;99.90
20728;DHT22;10525;50.154;8.198;2022-09-03T02:27:56;14.90;99.90
20728;DHT22;10525;50.154;8.198;2022-09-03T02:30:24;14.90;99.90
20728;DHT22;10525;50.154;8.198;2022-09-03T02:32:51;14.90;99.90
20728;DHT22;10525;50.154;8.198;2022-09-03T02:35:18;14.80;99.90
20728;DHT22;10525;50.154;8.198;2022-09-03T02:37:44;14.80;99.90
20728;DHT22;10525;50.154;8.198;2022-09-03T02:40:11;14.80;99.90
20728;DHT22;10525;50.154;8.198;2022-09-03T02:42:38;14.90;99.90
20728;DHT22;10525;50.154;8.198;2022-09-03T02:45:12;14.90;99.90
20728;DHT22;10525;50.154;8.198;2022-09-03T02:47:44;14.90;99.90
20728;DHT22;10525;50.154;8.198;2022-09-03T02:50:13;14.90;99.90
20728;DHT22;10525;50.154;8.198;2022-09-03T02:52:39;15.00;99.90
20728;DHT22;10525;50.154;8.198;2022-09-03T02:55:07;15.10;99.90
20728;DHT22;10525;50.154;8.198;2022-09-03T02:57:33;15.10;99.90
20728;DHT22;10525;50.154;8.198;2022-09-03T03:00:00;15.20;99.90
20728;DHT22;10525;50.154;8.198;2022-09-03T03:02:27;15.20;99.90
20728;DHT22;10525;50.154;8.198;2022-09-03T03:04:55;15.20;99.90
20728;DHT22;10525;50.154;8.198;2022-09-03T03:07:22;15.20;99.90
20728;DHT22;10525;50.154;8.198;2022-09-03T03:09:48;15.30;99.90
20728;DHT22;10525;50.154;8.198;2022-09-03T03:12:15;15.30;99.90
20728;DHT22;10525;50.154;8.198;2022-09-03T03:14:43;15.30;99.90
20728;DHT22;10525;50.154;8.198;2022-09-03T03:17:10;15.30;99.90
20728;DHT22;10525;50.154;8.198;2022-09-03T03:19:36;15.40;99.90
20728;DHT22;10525;50.154;8.198;2022-09-03T03:22:04;15.40;99.90
20728;DHT22;10525;50.154;8.198;2022-09-03T03:24:31;15.50;99.90
20728;DHT22;10525;50.154;8.198;2022-09-03T03:26:58;15.50;99.90
20728;DHT22;10525;50.154;8.198;2022-09-03T03:29:24;15.50;99.90
20728;DHT22;10525;50.154;8.198;2022-09-03T03:31:51;15.50;99.90
20728;DHT22;10525;50.154;8.198;2022-09-03T03:34:19;15.50;99.90
20728;DHT22;10525;50.154;8.198;2022-09-03T03:36:45;15.50;99.90
20728;DHT22;10525;50.154;8.198;2022-09-03T03:39:13;15.50;99.90
20728;DHT22;10525;50.154;8.198;2022-09-03T03:41:40;15.50;99.90
20728;DHT22;10525;50.154;8.198;2022-09-03T03:44:07;15.50;99.90
20728;DHT22;10525;50.154;8.198;2022-09-03T03:46:35;15.50;99.90
20728;DHT22;10525;50.154;8.198;2022-09-03T03:49:03;15.50;99.90
20728;DHT22;10525;50.154;8.198;2022-09-03T03:51:30;15.60;99.90
20728;DHT22;10525;50.154;8.198;2022-09-03T03:53:58;15.50;99.90
20728;DHT22;10525;50.154;8.198;2022-09-03T03:56:26;15.50;99.90
20728;DHT22;10525;50.154;8.198;2022-09-03T03:58:53;15.50;99.90
20728;DHT22;10525;50.154;8.198;2022-09-03T04:01:21;15.50;99.90
20728;DHT22;10525;50.154;8.198;2022-09-03T04:03:48;15.50;99.90
20728;DHT22;10525;50.154;8.198;2022-09-03T04:06:16;15.50;99.90
20728;DHT22;10525;50.154;8.198;2022-09-03T04:08:45;15.50;99.90
20728;DHT22;10525;50.154;8.198;2022-09-03T04:11:15;15.50;99.90
20728;DHT22;10525;50.154;8.198;2022-09-03T04:13:44;15.50;99.90
20728;DHT22;10525;50.154;8.198;2022-09-03T04:16:12;15.50;99.90
20728;DHT22;10525;50.154;8.198;2022-09-03T04:18:40;15.50;99.90
20728;DHT22;10525;50.154;8.198;2022-09-03T04:21:09;15.50;99.90
20728;DHT22;10525;50.154;8.198;2022-09-03T04:23:39;15.50;99.90
20728;DHT22;10525;50.154;8.198;2022-09-03T04:26:07;15.50;99.90
20728;DHT22;10525;50.154;8.198;2022-09-03T04:28:34;15.50;99.90
20728;DHT22;10525;50.154;8.198;2022-09-03T04:31:04;15.50;99.90
20728;DHT22;10525;50.154;8.198;2022-09-03T04:33:31;15.50;99.90
20728;DHT22;10525;50.154;8.198;2022-09-03T04:36:05;15.50;99.90
20728;DHT22;10525;50.154;8.198;2022-09-03T04:38:33;15.60;99.90
20728;DHT22;10525;50.154;8.198;2022-09-03T04:40:59;15.60;99.90
20728;DHT22;10525;50.154;8.198;2022-09-03T04:43:27;15.50;99.90
20728;DHT22;10525;50.154;8.198;2022-09-03T04:45:57;15.50;99.90
20728;DHT22;10525;50.154;8.198;2022-09-03T04:48:26;15.50;99.90
20728;DHT22;10525;50.154;8.198;2022-09-03T04:50:54;15.50;99.90
20728;DHT22;10525;50.154;8.198;2022-09-03T04:53:21;15.50;99.90
20728;DHT22;10525;50.154;8.198;2022-09-03T04:55:48;15.50;99.90
20728;DHT22;10525;50.154;8.198;2022-09-03T04:58:15;15.60;99.90
20728;DHT22;10525;50.154;8.198;2022-09-03T05:00:42;15.60;99.90
20728;DHT22;10525;50.154;8.198;2022-09-03T05:03:08;15.60;99.90
20728;DHT22;10525;50.154;8.198;2022-09-03T05:05:36;15.60;99.90
20728;DHT22;10525;50.154;8.198;2022-09-03T05:08:03;15.60;99.90
20728;DHT22;10525;50.154;8.198;2022-09-03T05:10:30;15.60;99.90
20728;DHT22;10525;50.154;8.198;2022-09-03T05:12:58;15.60;99.90
20728;DHT22;10525;50.154;8.198;2022-09-03T05:15:25;15.60;99.90
20728;DHT22;10525;50.154;8.198;2022-09-03T05:17:55;15.60;99.90
20728;DHT22;10525;50.154;8.198;2022-09-03T05:20:22;15.60;99.90
20728;DHT22;10525;50.154;8.198;2022-09-03T05:22:51;15.60;99.90
20728;DHT22;10525;50.154;8.198;2022-09-03T05:25:18;15.70;99.90
20728;DHT22;10525;50.154;8.198;2022-09-03T05:27:44;15.70;99.90
20728;DHT22;10525;50.154;8.198;2022-09-03T05:30:12;15.70;99.90
20728;DHT22;10525;50.154;8.198;2022-09-03T05:32:38;15.70;99.90
20728;DHT22;10525;50.154;8.198;2022-09-03T05:35:07;15.70;99.90
20728;DHT22;10525;50.154;8.198;2022-09-03T05:37:35;15.70;99.90
20728;DHT22;10525;50.154;8.198;2022-09-03T05:40:05;15.70;99.90
20728;DHT22;10525;50.154;8.198;2022-09-03T05:42:32;15.90;99.90
20728;DHT22;10525;50.154;8.198;2022-09-03T05:45:04;15.90;99.90
20728;DHT22;10525;50.154;8.198;2022-09-03T05:47:31;15.90;99.90
20728;DHT22;10525;50.154;8.198;2022-09-03T05:49:57;15.80;99.90
20728;DHT22;10525;50.154;8.198;2022-09-03T05:52:24;15.80;99.90
20728;DHT22;10525;50.154;8.198;2022-09-03T05:54:51;15.80;99.90
20728;DHT22;10525;50.154;8.198;2022-09-03T05:57:19;15.80;99.90
20728;DHT22;10525;50.154;8.198;2022-09-03T05:59:46;15.80;99.90
20728;DHT22;10525;50.154;8.198;2022-09-03T06:02:13;15.80;99.90
20728;DHT22;10525;50.154;8.198;2022-09-03T06:04:39;15.80;99.90
20728;DHT22;10525;50.154;8.198;2022-09-03T06:07:06;15.80;99.90
20728;DHT22;10525;50.154;8.198;2022-09-03T06:09:33;15.80;99.90
20728;DHT22;10525;50.154;8.198;2022-09-03T06:12:00;15.80;99.90
20728;DHT22;10525;50.154;8.198;2022-09-03T06:14:28;15.80;99.90
20728;DHT22;10525;50.154;8.198;2022-09-03T06:16:54;15.80;99.90
20728;DHT22;10525;50.154;8.198;2022-09-03T06:19:21;15.80;99.90
20728;DHT22;10525;50.154;8.198;2022-09-03T06:21:48;15.70;99.90
20728;DHT22;10525;50.154;8.198;2022-09-03T06:24:16;15.60;99.90
20728;DHT22;10525;50.154;8.198;2022-09-03T06:26:43;15.60;99.90
20728;DHT22;10525;50.154;8.198;2022-09-03T06:29:11;15.40;99.90
20728;DHT22;10525;50.154;8.198;2022-09-03T06:31:39;15.10;99.90
20728;DHT22;10525;50.154;8.198;2022-09-03T06:34:06;14.90;99.90
20728;DHT22;10525;50.154;8.198;2022-09-03T06:36:33;14.60;99.90
20728;DHT22;10525;50.154;8.198;2022-09-03T06:39:00;14.40;99.90
20728;DHT22;10525;50.154;8.198;2022-09-03T06:41:28;14.30;99.90
20728;DHT22;10525;50.154;8.198;2022-09-03T06:43:59;14.20;99.90
20728;DHT22;10525;50.154;8.198;2022-09-03T06:46:26;14.30;99.90
20728;DHT22;10525;50.154;8.198;2022-09-03T06:48:55;14.30;99.90
20728;DHT22;10525;50.154;8.198;2022-09-03T06:51:23;14.30;99.90
20728;DHT22;10525;50.154;8.198;2022-09-03T06:53:51;14.20;99.90
20728;DHT22;10525;50.154;8.198;2022-09-03T06:56:21;14.20;99.90
20728;DHT22;10525;50.154;8.198;2022-09-03T06:58:52;14.20;99.90
20728;DHT22;10525;50.154;8.198;2022-09-03T07:01:21;14.20;99.90
20728;DHT22;10525;50.154;8.198;2022-09-03T07:03:55;14.20;99.90
20728;DHT22;10525;50.154;8.198;2022-09-03T07:06:23;14.20;99.90
20728;DHT22;10525;50.154;8.198;2022-09-03T07:08:51;14.30;99.90
20728;DHT22;10525;50.154;8.198;2022-09-03T07:11:20;14.30;99.90
20728;DHT22;10525;50.154;8.198;2022-09-03T07:13:51;14.30;99.90
20728;DHT22;10525;50.154;8.198;2022-09-03T07:16:19;14.30;99.90
20728;DHT22;10525;50.154;8.198;2022-09-03T07:18:47;14.40;99.90
20728;DHT22;10525;50.154;8.198;2022-09-03T07:21:18;14.50;99.90
20728;DHT22;10525;50.154;8.198;2022-09-03T07:23:45;14.50;99.90
20728;DHT22;10525;50.154;8.198;2022-09-03T07:26:14;14.40;99.90
20728;DHT22;10525;50.154;8.198;2022-09-03T07:28:43;14.10;99.90
20728;DHT22;10525;50.154;8.198;2022-09-03T07:31:12;14.10;99.90
20728;DHT22;10525;50.154;8.198;2022-09-03T07:33:39;14.10;99.90
20728;DHT22;10525;50.154;8.198;2022-09-03T07:36:08;14.10;99.90
20728;DHT22;10525;50.154;8.198;2022-09-03T07:38:37;14.20;99.90
20728;DHT22;10525;50.154;8.198;2022-09-03T07:41:05;14.30;99.90
20728;DHT22;10525;50.154;8.198;2022-09-03T07:43:34;14.30;99.90
20728;DHT22;10525;50.154;8.198;2022-09-03T07:46:02;14.40;99.90
20728;DHT22;10525;50.154;8.198;2022-09-03T07:48:28;14.20;99.90
20728;DHT22;10525;50.154;8.198;2022-09-03T07:50:57;14.30;99.90
20728;DHT22;10525;50.154;8.198;2022-09-03T07:53:26;14.40;99.90
20728;DHT22;10525;50.154;8.198;2022-09-03T07:55:54;14.40;99.90
20728;DHT22;10525;50.154;8.198;2022-09-03T07:58:28;14.40;99.90
20728;DHT22;10525;50.154;8.198;2022-09-03T08:00:55;14.40;99.90
20728;DHT22;10525;50.154;8.198;2022-09-03T08:03:22;14.30;99.90
20728;DHT22;10525;50.154;8.198;2022-09-03T08:05:48;14.40;99.90
20728;DHT22;10525;50.154;8.198;2022-09-03T08:08:15;14.50;99.90
20728;DHT22;10525;50.154;8.198;2022-09-03T08:10:42;14.60;99.90
20728;DHT22;10525;50.154;8.198;2022-09-03T08:13:10;14.70;99.90
20728;DHT22;10525;50.154;8.198;2022-09-03T08:15:37;14.80;99.90
20728;DHT22;10525;50.154;8.198;2022-09-03T08:18:07;14.80;99.90
20728;DHT22;10525;50.154;8.198;2022-09-03T08:20:35;14.90;99.90
20728;DHT22;10525;50.154;8.198;2022-09-03T08:23:03;15.20;99.90
20728;DHT22;10525;50.154;8.198;2022-09-03T08:25:29;15.40;99.90
20728;DHT22;10525;50.154;8.198;2022-09-03T08:27:57;15.40;99.90
20728;DHT22;10525;50.154;8.198;2022-09-03T08:30:26;15.30;99.90
20728;DHT22;10525;50.154;8.198;2022-09-03T08:32:53;15.40;99.90
20728;DHT22;10525;50.154;8.198;2022-09-03T08:35:20;15.40;99.90
20728;DHT22;10525;50.154;8.198;2022-09-03T08:37:46;15.50;99.90
20728;DHT22;10525;50.154;8.198;2022-09-03T08:40:14;15.60;99.90
20728;DHT22;10525;50.154;8.198;2022-09-03T08:42:48;15.70;99.90
20728;DHT22;10525;50.154;8.198;2022-09-03T08:45:20;15.90;99.90
20728;DHT22;10525;50.154;8.198;2022-09-03T08:47:53;16.00;99.90
20728;DHT22;10525;50.154;8.198;2022-09-03T08:50:25;16.20;99.90
20728;DHT22;10525;50.154;8.198;2022-09-03T08:52:55;16.40;99.90
20728;DHT22;10525;50.154;8.198;2022-09-03T08:55:26;16.50;99.90
20728;DHT22;10525;50.154;8.198;2022-09-03T08:57:59;16.70;99.90
20728;DHT22;10525;50.154;8.198;2022-09-03T09:00:39;16.80;99.90
20728;DHT22;10525;50.154;8.198;2022-09-03T09:03:24;16.70;99.90
20728;DHT22;10525;50.154;8.198;2022-09-03T09:06:02;16.90;99.90
20728;DHT22;10525;50.154;8.198;2022-09-03T09:08:36;16.70;99.90
20728;DHT22;10525;50.154;8.198;2022-09-03T09:11:10;16.80;99.90
20728;DHT22;10525;50.154;8.198;2022-09-03T09:13:43;17.20;99.90
20728;DHT22;10525;50.154;8.198;2022-09-03T09:16:15;17.30;99.90
20728;DHT22;10525;50.154;8.198;2022-09-03T09:19:03;17.50;99.90
20728;DHT22;10525;50.154;8.198;2022-09-03T09:21:39;17.40;99.90
20728;DHT22;10525;50.154;8.198;2022-09-03T09:24:16;17.20;99.90
20728;DHT22;10525;50.154;8.198;2022-09-03T09:26:48;16.80;99.90
20728;DHT22;10525;50.154;8.198;2022-09-03T09:29:15;16.70;99.90
20728;DHT22;10525;50.154;8.198;2022-09-03T09:31:42;16.80;99.90
20728;DHT22;10525;50.154;8.198;2022-09-03T09:34:11;16.80;99.90
20728;DHT22;10525;50.154;8.198;2022-09-03T09:36:42;16.60;99.90
20728;DHT22;10525;50.154;8.198;2022-09-03T09:39:11;16.50;99.90
20728;DHT22;10525;50.154;8.198;2022-09-03T09:41:40;16.70;99.90
20728;DHT22;10525;50.154;8.198;2022-09-03T09:44:07;16.40;99.90
20728;DHT22;10525;50.154;8.198;2022-09-03T09:46:35;16.60;99.90
20728;DHT22;10525;50.154;8.198;2022-09-03T09:49:17;17.00;99.90
20728;DHT22;10525;50.154;8.198;2022-09-03T09:51:59;16.90;99.90
20728;DHT22;10525;50.154;8.198;2022-09-03T09:54:27;17.10;99.90
20728;DHT22;10525;50.154;8.198;2022-09-03T09:56:58;17.50;99.90
20728;DHT22;10525;50.154;8.198;2022-09-03T09:59:25;17.60;99.90
20728;DHT22;10525;50.154;8.198;2022-09-03T10:02:03;17.60;99.90
20728;DHT22;10525;50.154;8.198;2022-09-03T10:04:32;17.60;99.90
20728;DHT22;10525;50.154;8.198;2022-09-03T10:07:04;18.00;99.90
20728;DHT22;10525;50.154;8.198;2022-09-03T10:09:44;17.90;99.90
20728;DHT22;10525;50.154;8.198;2022-09-03T10:12:20;18.10;99.90
20728;DHT22;10525;50.154;8.198;2022-09-03T10:14:52;18.20;99.90
20728;DHT22;10525;50.154;8.198;2022-09-03T10:17:25;17.90;99.90
20728;DHT22;10525;50.154;8.198;2022-09-03T10:19:59;17.80;99.90
20728;DHT22;10525;50.154;8.198;2022-09-03T10:22:53;18.20;99.90
20728;DHT22;10525;50.154;8.198;2022-09-03T10:25:20;18.20;99.90
20728;DHT22;10525;50.154;8.198;2022-09-03T10:27:49;18.50;99.90
20728;DHT22;10525;50.154;8.198;2022-09-03T10:30:18;18.50;99.90
20728;DHT22;10525;50.154;8.198;2022-09-03T10:32:53;18.30;99.90
20728;DHT22;10525;50.154;8.198;2022-09-03T10:35:28;17.90;99.90
20728;DHT22;10525;50.154;8.198;2022-09-03T10:38:04;17.90;99.90
20728;DHT22;10525;50.154;8.198;2022-09-03T10:40:36;18.00;99.90
20728;DHT22;10525;50.154;8.198;2022-09-03T10:43:16;18.10;99.90
20728;DHT22;10525;50.154;8.198;2022-09-03T10:45:52;18.50;99.90
20728;DHT22;10525;50.154;8.198;2022-09-03T10:51:16;18.70;99.90
20728;DHT22;10525;50.154;8.198;2022-09-03T10:53:58;18.90;99.90
20728;DHT22;10525;50.154;8.198;2022-09-03T10:56:31;19.10;99.90
20728;DHT22;10525;50.154;8.198;2022-09-03T10:59:09;19.70;99.90
20728;DHT22;10525;50.154;8.198;2022-09-03T11:01:48;20.00;99.90
20728;DHT22;10525;50.154;8.198;2022-09-03T11:04:24;20.30;99.90
20728;DHT22;10525;50.154;8.198;2022-09-03T11:06:56;20.20;99.90
20728;DHT22;10525;50.154;8.198;2022-09-03T11:09:28;19.70;99.90
20728;DHT22;10525;50.154;8.198;2022-09-03T11:11:58;19.70;99.90
20728;DHT22;10525;50.154;8.198;2022-09-03T11:14:33;19.70;99.90
20728;DHT22;10525;50.154;8.198;2022-09-03T11:17:04;20.00;99.90
20728;DHT22;10525;50.154;8.198;2022-09-03T11:19:35;20.30;99.90
20728;DHT22;10525;50.154;8.198;2022-09-03T11:22:05;20.30;99.90
20728;DHT22;10525;50.154;8.198;2022-09-03T11:24:34;20.30;99.90
20728;DHT22;10525;50.154;8.198;2022-09-03T11:27:14;20.40;99.90
20728;DHT22;10525;50.154;8.198;2022-09-03T11:29:49;20.20;99.90
20728;DHT22;10525;50.154;8.198;2022-09-03T11:32:20;20.10;99.90
20728;DHT22;10525;50.154;8.198;2022-09-03T11:34:49;19.90;99.90
20728;DHT22;10525;50.154;8.198;2022-09-03T11:37:19;19.90;99.90
20728;DHT22;10525;50.154;8.198;2022-09-03T11:40:02;19.90;99.90
20728;DHT22;10525;50.154;8.198;2022-09-03T11:42:32;19.90;99.90
20728;DHT22;10525;50.154;8.198;2022-09-03T11:45:21;19.80;99.90
20728;DHT22;10525;50.154;8.198;2022-09-03T11:47:49;20.00;99.90
20728;DHT22;10525;50.154;8.198;2022-09-03T11:50:20;20.00;99.90
20728;DHT22;10525;50.154;8.198;2022-09-03T11:52:47;20.80;99.90
20728;DHT22;10525;50.154;8.198;2022-09-03T11:55:29;20.80;99.90
20728;DHT22;10525;50.154;8.198;2022-09-03T11:57:57;21.20;99.90
20728;DHT22;10525;50.154;8.198;2022-09-03T12:00:24;21.30;99.90
20728;DHT22;10525;50.154;8.198;2022-09-03T12:02:54;21.10;99.90
20728;DHT22;10525;50.154;8.198;2022-09-03T12:05:29;20.90;99.90
20728;DHT22;10525;50.154;8.198;2022-09-03T12:08:31;20.60;99.90
20728;DHT22;10525;50.154;8.198;2022-09-03T12:11:21;20.70;99.90
20728;DHT22;10525;50.154;8.198;2022-09-03T12:13:59;20.90;99.90
20728;DHT22;10525;50.154;8.198;2022-09-03T12:16:44;21.00;99.90
20728;DHT22;10525;50.154;8.198;2022-09-03T12:19:19;21.10;99.90
20728;DHT22;10525;50.154;8.198;2022-09-03T12:21:50;21.30;99.90
20728;DHT22;10525;50.154;8.198;2022-09-03T12:24:18;21.10;99.90
20728;DHT22;10525;50.154;8.198;2022-09-03T12:26:46;21.30;99.90
20728;DHT22;10525;50.154;8.198;2022-09-03T12:29:30;21.70;99.90
20728;DHT22;10525;50.154;8.198;2022-09-03T12:32:06;21.60;99.90
20728;DHT22;10525;50.154;8.198;2022-09-03T12:34:33;21.80;99.90
20728;DHT22;10525;50.154;8.198;2022-09-03T12:37:01;21.80;99.90
20728;DHT22;10525;50.154;8.198;2022-09-03T12:39:29;21.50;99.90
20728;DHT22;10525;50.154;8.198;2022-09-03T12:42:00;21.80;99.90
20728;DHT22;10525;50.154;8.198;2022-09-03T12:44:29;21.90;99.90
20728;DHT22;10525;50.154;8.198;2022-09-03T12:47:00;22.00;99.90
20728;DHT22;10525;50.154;8.198;2022-09-03T12:49:33;21.60;99.90
20728;DHT22;10525;50.154;8.198;2022-09-03T12:52:02;21.50;99.90
20728;DHT22;10525;50.154;8.198;2022-09-03T12:54:31;21.50;99.90
20728;DHT22;10525;50.154;8.198;2022-09-03T12:56:59;21.40;99.90
20728;DHT22;10525;50.154;8.198;2022-09-03T12:59:27;21.70;99.90
20728;DHT22;10525;50.154;8.198;2022-09-03T13:01:59;22.00;99.90
20728;DHT22;10525;50.154;8.198;2022-09-03T13:04:29;21.80;99.90
20728;DHT22;10525;50.154;8.198;2022-09-03T13:07:00;22.10;99.90
20728;DHT22;10525;50.154;8.198;2022-09-03T13:09:33;22.10;99.90
20728;DHT22;10525;50.154;8.198;2022-09-03T13:12:03;22.10;99.90
20728;DHT22;10525;50.154;8.198;2022-09-03T13:14:41;22.20;99.90
20728;DHT22;10525;50.154;8.198;2022-09-03T13:17:19;22.40;99.90
20728;DHT22;10525;50.154;8.198;2022-09-03T13:20:03;22.60;99.90
20728;DHT22;10525;50.154;8.198;2022-09-03T13:22:38;22.30;99.90
20728;DHT22;10525;50.154;8.198;2022-09-03T13:25:15;22.40;99.90
20728;DHT22;10525;50.154;8.198;2022-09-03T13:27:53;22.00;99.90
20728;DHT22;10525;50.154;8.198;2022-09-03T13:30:31;21.90;99.90
20728;DHT22;10525;50.154;8.198;2022-09-03T13:33:01;21.60;99.90
20728;DHT22;10525;50.154;8.198;2022-09-03T13:35:35;21.70;99.90
20728;DHT22;10525;50.154;8.198;2022-09-03T13:38:08;22.00;99.90
20728;DHT22;10525;50.154;8.198;2022-09-03T13:40:43;22.30;99.90
20728;DHT22;10525;50.154;8.198;2022-09-03T13:43:24;22.40;99.90
20728;DHT22;10525;50.154;8.198;2022-09-03T13:45:56;22.60;99.90
20728;DHT22;10525;50.154;8.198;2022-09-03T13:48:29;22.60;99.90
20728;DHT22;10525;50.154;8.198;2022-09-03T13:51:18;22.50;99.90
20728;DHT22;10525;50.154;8.198;2022-09-03T13:53:54;22.30;99.90
20728;DHT22;10525;50.154;8.198;2022-09-03T13:56:33;22.40;99.90
20728;DHT22;10525;50.154;8.198;2022-09-03T13:59:05;22.30;99.90
20728;DHT22;10525;50.154;8.198;2022-09-03T14:01:48;22.20;99.90
20728;DHT22;10525;50.154;8.198;2022-09-03T14:04:24;22.10;99.90
20728;DHT22;10525;50.154;8.198;2022-09-03T14:06:57;22.60;99.90
20728;DHT22;10525;50.154;8.198;2022-09-03T14:09:34;22.40;99.90
20728;DHT22;10525;50.154;8.198;2022-09-03T14:12:04;22.50;99.90
20728;DHT22;10525;50.154;8.198;2022-09-03T14:14:40;22.70;99.90
20728;DHT22;10525;50.154;8.198;2022-09-03T14:17:14;23.30;99.90
20728;DHT22;10525;50.154;8.198;2022-09-03T14:19:50;23.30;99.90
20728;DHT22;10525;50.154;8.198;2022-09-03T14:22:21;22.90;99.90
20728;DHT22;10525;50.154;8.198;2022-09-03T14:24:52;22.90;99.90
20728;DHT22;10525;50.154;8.198;2022-09-03T14:27:25;22.50;99.90
20728;DHT22;10525;50.154;8.198;2022-09-03T14:29:58;22.30;99.90
20728;DHT22;10525;50.154;8.198;2022-09-03T14:32:28;22.50;99.90
20728;DHT22;10525;50.154;8.198;2022-09-03T14:35:16;22.70;99.90
20728;DHT22;10525;50.154;8.198;2022-09-03T14:38:16;22.80;99.90
20728;DHT22;10525;50.154;8.198;2022-09-03T14:40:46;22.70;99.90
20728;DHT22;10525;50.154;8.198;2022-09-03T14:43:27;22.60;99.90
20728;DHT22;10525;50.154;8.198;2022-09-03T14:46:26;22.50;99.90
20728;DHT22;10525;50.154;8.198;2022-09-03T14:49:10;22.50;99.90
20728;DHT22;10525;50.154;8.198;2022-09-03T14:51:50;22.60;99.90
20728;DHT22;10525;50.154;8.198;2022-09-03T14:57:47;22.70;99.90
20728;DHT22;10525;50.154;8.198;2022-09-03T15:00:15;22.30;99.90
20728;DHT22;10525;50.154;8.198;2022-09-03T15:03:02;22.40;99.90
20728;DHT22;10525;50.154;8.198;2022-09-03T15:05:46;22.40;99.90
20728;DHT22;10525;50.154;8.198;2022-09-03T15:08:23;22.10;99.90
20728;DHT22;10525;50.154;8.198;2022-09-03T15:10:58;21.70;99.90
20728;DHT22;10525;50.154;8.198;2022-09-03T15:13:29;21.40;99.90
20728;DHT22;10525;50.154;8.198;2022-09-03T15:16:06;21.40;99.90
20728;DHT22;10525;50.154;8.198;2022-09-03T15:18:50;21.30;99.90
20728;DHT22;10525;50.154;8.198;2022-09-03T15:21:31;21.50;99.90
20728;DHT22;10525;50.154;8.198;2022-09-03T15:24:08;21.50;99.90
20728;DHT22;10525;50.154;8.198;2022-09-03T15:26:55;21.40;99.90
20728;DHT22;10525;50.154;8.198;2022-09-03T15:29:42;21.50;99.90
20728;DHT22;10525;50.154;8.198;2022-09-03T15:32:21;21.60;99.90
20728;DHT22;10525;50.154;8.198;2022-09-03T15:35:04;21.40;99.90
20728;DHT22;10525;50.154;8.198;2022-09-03T15:37:36;21.30;99.90
20728;DHT22;10525;50.154;8.198;2022-09-03T15:40:07;21.20;99.90
20728;DHT22;10525;50.154;8.198;2022-09-03T15:42:40;21.10;99.90
20728;DHT22;10525;50.154;8.198;2022-09-03T15:45:15;21.00;99.90
20728;DHT22;10525;50.154;8.198;2022-09-03T15:47:51;20.90;99.90
20728;DHT22;10525;50.154;8.198;2022-09-03T15:50:29;20.90;99.90
20728;DHT22;10525;50.154;8.198;2022-09-03T15:53:01;21.00;99.90
20728;DHT22;10525;50.154;8.198;2022-09-03T15:55:32;21.10;99.90
20728;DHT22;10525;50.154;8.198;2022-09-03T15:58:05;21.20;99.90
20728;DHT22;10525;50.154;8.198;2022-09-03T16:00:48;21.20;99.90
20728;DHT22;10525;50.154;8.198;2022-09-03T16:03:19;21.10;99.90
20728;DHT22;10525;50.154;8.198;2022-09-03T16:05:54;21.10;99.90